Time;durP1;ratioP1;P1;durP2;ratioP2;P2;SDS_P1;SDS_P2;PMS_P1;PMS_P2;Temp;Humidity;BMP_temperature;BMP_pressure;BME280_temperature;BME280_humidity;BME280_pressure;Samples;Min_cycle;Max_cycle;Signal;HPM_P1;HPM_P2
2022/11/25 00:00:10;;;;;;;0.10;0.10;;;6.20;99.90;;;;;;5067106;28;20071;-86
2022/11/25 00:02:42;;;;;;;0.10;0.10;;;6.20;99.90;;;;;;5058453;28;20079;-85
2022/11/25 00:05:09;;;;;;;0.20;0.20;;;;;;;;;;5050077;28;20416;-88
2022/11/25 00:07:37;;;;;;;0.10;0.10;;;;;;;;;;5071955;28;20048;-88
2022/11/25 00:10:06;;;;;;;0.10;0.10;;;6.50;99.90;;;;;;5064420;28;20247;-85
2022/11/25 00:12:33;;;;;;;0.10;0.10;;;;;;;;;;5050776;28;20071;-85
2022/11/25 00:15:00;;;;;;;0.10;0.10;;;;;;;;;;5056539;28;20044;-86
2022/11/25 00:17:28;;;;;;;0.10;0.10;;;6.10;99.90;;;;;;5069445;28;20076;-85
2022/11/25 00:19:55;;;;;;;0.10;0.10;;;;;;;;;;5062163;28;20074;-88
2022/11/25 00:22:23;;;;;;;0.10;0.10;;;;;;;;;;5066009;28;20041;-86
2022/11/25 00:24:50;;;;;;;0.10;0.10;;;;;;;;;;5055902;28;20519;-85
2022/11/25 00:27:17;;;;;;;0.10;0.10;;;;;;;;;;5059603;28;20074;-86
2022/11/25 00:29:44;;;;;;;0.10;0.10;;;;;;;;;;5057211;28;20044;-86
2022/11/25 00:32:11;;;;;;;0.10;0.10;;;;;;;;;;5068113;28;20044;-86
2022/11/25 00:34:39;;;;;;;0.10;0.10;;;6.00;99.90;;;;;;5067764;28;20051;-86
2022/11/25 00:37:07;;;;;;;0.10;0.10;;;;;;;;;;5054528;28;20072;-85
2022/11/25 00:39:34;;;;;;;0.10;0.10;;;;;;;;;;5057905;28;20064;-85
2022/11/25 00:44:47;;;;;;;0.10;0.10;;;6.00;99.90;;;;;;5064817;28;20386;-85
2022/11/25 00:47:15;;;;;;;0.10;0.10;;;6.00;99.90;;;;;;5050995;28;20461;-85
2022/11/25 00:49:44;;;;;;;0.10;0.10;;;6.00;99.90;;;;;;5068988;28;20102;-87
2022/11/25 00:52:14;;;;;;;0.10;0.10;;;5.80;99.90;;;;;;5056696;28;20040;-85
2022/11/25 00:54:41;;;;;;;0.10;0.10;;;;;;;;;;5071297;28;20101;-85
2022/11/25 00:57:08;;;;;;;0.10;0.10;;;;;;;;;;5069076;28;20131;-86
2022/11/25 00:59:35;;;;;;;0.10;0.10;;;;;;;;;;5070055;28;20512;-86
2022/11/25 01:02:02;;;;;;;0.10;0.10;;;;;;;;;;5073550;28;20503;-86
2022/11/25 01:04:30;;;;;;;0.10;0.10;;;;;;;;;;5069916;28;20064;-86
2022/11/25 01:06:59;;;;;;;0.20;0.20;;;5.90;99.90;;;;;;5058666;28;20076;-85
2022/11/25 01:09:26;;;;;;;0.10;0.10;;;;;;;;;;5056861;28;20500;-86
2022/11/25 01:11:54;;;;;;;0.10;0.10;;;;;;;;;;5069243;28;20497;-86
2022/11/25 01:14:21;;;;;;;0.10;0.10;;;5.90;99.90;;;;;;5064589;28;20074;-86
2022/11/25 01:16:49;;;;;;;0.10;0.10;;;;;;;;;;5070957;28;20212;-86
2022/11/25 01:19:16;;;;;;;0.10;0.10;;;5.80;99.90;;;;;;5072501;28;20055;-85
2022/11/25 01:21:44;;;;;;;0.10;0.10;;;;;;;;;;5049589;28;20128;-86
2022/11/25 01:24:13;;;;;;;0.10;0.10;;;5.70;99.90;;;;;;5062528;28;20501;-86
2022/11/25 01:26:41;;;;;;;0.10;0.10;;;5.70;99.90;;;;;;5056373;28;20078;-85
2022/11/25 01:29:13;;;;;;;0.10;0.10;;;5.70;99.90;;;;;;5053902;28;20068;-86
2022/11/25 01:31:41;;;;;;;0.10;0.10;;;;;;;;;;5048867;28;20076;-85
2022/11/25 01:34:12;;;;;;;0.10;0.10;;;5.60;99.90;;;;;;5067252;28;20049;-86
2022/11/25 01:36:40;;;;;;;0.10;0.10;;;;;;;;;;5054324;28;20075;-86
2022/11/25 01:39:07;;;;;;;0.10;0.10;;;;;;;;;;5049867;28;20047;-88
2022/11/25 01:41:35;;;;;;;0.10;0.10;;;5.50;99.90;;;;;;5063180;28;20125;-86
2022/11/25 01:44:04;;;;;;;0.10;0.10;;;5.50;99.90;;;;;;5067331;28;20098;-86
2022/11/25 01:46:43;;;;;;;0.10;0.10;;;5.50;99.90;;;;;;5066297;28;20053;-85
2022/11/25 01:49:15;;;;;;;0.10;0.10;;;5.50;99.90;;;;;;5061577;28;20052;-86
2022/11/25 01:51:47;;;;;;;0.10;0.10;;;5.50;99.90;;;;;;5070977;28;20036;-85
2022/11/25 01:54:17;;;;;;;0.10;0.10;;;5.50;99.90;;;;;;5043096;28;20079;-86
2022/11/25 01:56:50;;;;;;;0.10;0.10;;;5.50;99.90;;;;;;5069226;28;20045;-85
2022/11/25 01:59:18;;;;;;;0.10;0.10;;;;;;;;;;5070333;28;20124;-86
2022/11/25 02:01:45;;;;;;;0.20;0.20;;;;;;;;;;5050802;28;20072;-85
2022/11/25 02:04:15;;;;;;;0.10;0.10;;;5.50;99.90;;;;;;5047840;28;20060;-86
2022/11/25 02:06:46;;;;;;;;;;;8.30;99.90;;;;;;5066282;28;20036;-85
2022/11/25 02:09:14;;;;;;;0.10;0.10;;;;;;;;;;5051504;28;19979;-88
2022/11/25 02:11:42;;;;;;;0.10;0.10;;;5.60;99.90;;;;;;5049701;28;20041;-86
2022/11/25 02:14:12;;;;;;;0.10;0.10;;;5.60;99.90;;;;;;5050860;28;20067;-86
2022/11/25 02:16:39;;;;;;;0.10;0.10;;;;;;;;;;5068501;28;20096;-86
2022/11/25 02:19:17;;;;;;;0.10;0.10;;;5.60;99.90;;;;;;5051128;28;20493;-85
2022/11/25 02:21:49;;;;;;;0.10;0.10;;;6.60;99.90;;;;;;5065311;28;20082;-85
2022/11/25 02:24:25;;;;;;;0.10;0.10;;;5.50;99.90;;;;;;5051397;28;20040;-84
2022/11/25 02:26:53;;;;;;;0.10;0.10;;;5.50;99.90;;;;;;5054511;28;20127;-85
2022/11/25 02:29:20;;;;;;;0.10;0.10;;;;;;;;;;5068236;28;20068;-87
2022/11/25 02:31:48;;;;;;;0.10;0.10;;;5.50;99.90;;;;;;5061721;28;20044;-86
2022/11/25 02:34:15;;;;;;;0.10;0.10;;;5.50;99.90;;;;;;5062491;28;20411;-85
2022/11/25 02:36:42;;;;;;;0.10;0.10;;;;;;;;;;5048420;28;20072;-85
2022/11/25 02:39:11;;;;;;;0.10;0.10;;;5.40;99.90;;;;;;5056710;28;20045;-85
2022/11/25 02:41:42;;;;;;;0.10;0.10;;;6.10;99.90;;;;;;5062989;28;20078;-87
2022/11/25 02:44:10;;;;;;;0.10;0.10;;;5.50;99.90;;;;;;5048273;28;20075;-88
2022/11/25 02:46:38;;;;;;;0.10;0.10;;;;;;;;;;5042391;28;20516;-85
2022/11/25 02:49:05;;;;;;;0.10;0.10;;;;;;;;;;5071230;28;20072;-86
2022/11/25 02:51:36;;;;;;;0.10;0.10;;;;;;;;;;5046410;28;20049;-85
2022/11/25 02:54:03;;;;;;;0.10;0.10;;;;;;;;;;5066234;28;20044;-85
2022/11/25 02:56:32;;;;;;;0.10;0.10;;;5.60;99.90;;;;;;5050142;28;20071;-85
2022/11/25 02:59:00;;;;;;;0.10;0.10;;;;;;;;;;5051625;28;20092;-86
2022/11/25 03:01:30;;;;;;;0.10;0.10;;;5.50;99.90;;;;;;5051003;28;20144;-85
2022/11/25 03:03:57;;;;;;;;;;;7.40;99.90;;;;;;5062473;28;20056;-89
2022/11/25 03:06:24;;;;;;;0.10;0.10;;;;;;;;;;5064173;28;20534;-86
2022/11/25 03:08:51;;;;;;;0.10;0.10;;;;;;;;;;5052129;28;20078;-86
2022/11/25 03:11:18;;;;;;;0.10;0.10;;;;;;;;;;5051725;28;20068;-86
2022/11/25 03:13:46;;;;;;;0.10;0.10;;;;;;;;;;5055222;28;20522;-85
2022/11/25 03:16:13;;;;;;;0.10;0.10;;;;;;;;;;5069412;28;20115;-86
2022/11/25 03:18:41;;;;;;;0.10;0.10;;;6.00;99.90;;;;;;5065457;28;20071;-87
2022/11/25 03:21:08;;;;;;;0.10;0.10;;;;;;;;;;5056406;28;20112;-86
2022/11/25 03:23:35;;;;;;;0.10;0.10;;;;;;;;;;5055413;28;20119;-86
2022/11/25 03:26:04;;;;;;;0.10;0.10;;;6.10;99.90;;;;;;5052445;28;20075;-85
2022/11/25 03:28:32;;;;;;;0.10;0.10;;;;;;;;;;5056167;28;20401;-86
2022/11/25 03:30:59;;;;;;;0.10;0.10;;;;;;;;;;5070184;28;20131;-86
2022/11/25 03:33:26;;;;;;;0.10;0.10;;;;;;;;;;5068404;28;20079;-85
2022/11/25 03:35:54;;;;;;;0.10;0.10;;;6.10;99.90;;;;;;5059403;28;20041;-85
2022/11/25 03:38:22;;;;;;;0.10;0.10;;;;;;;;;;5055524;28;20416;-85
2022/11/25 03:40:49;;;;;;;0.10;0.10;;;;;;;;;;5074395;28;20548;-86
2022/11/25 03:43:16;;;;;;;0.10;0.10;;;;;;;;;;5054425;28;20119;-86
2022/11/25 03:45:43;;;;;;;0.10;0.10;;;;;;;;;;5066070;28;20068;-86
2022/11/25 03:48:10;;;;;;;0.10;0.10;;;;;;;;;;5076901;28;20037;-86
2022/11/25 03:50:38;;;;;;;0.10;0.10;;;;;;;;;;5066074;28;20091;-86
2022/11/25 03:53:06;;;;;;;0.10;0.10;;;6.20;99.90;;;;;;5059555;28;20048;-86
2022/11/25 03:55:33;;;;;;;0.10;0.10;;;;;;;;;;5067564;28;20049;-86
2022/11/25 03:58:00;;;;;;;0.10;0.10;;;;;;;;;;5071690;28;20546;-87
2022/11/25 04:00:27;;;;;;;0.10;0.10;;;;;;;;;;5070718;28;20075;-88
2022/11/25 04:02:55;;;;;;;0.10;0.10;;;;;;;;;;5074370;28;20072;-86
2022/11/25 04:05:22;;;;;;;0.10;0.10;;;;;;;;;;5053487;28;20051;-85
2022/11/25 04:07:49;;;;;;;0.10;0.10;;;;;;;;;;5054383;28;20498;-85
2022/11/25 04:10:24;;;;;;;0.10;0.10;;;6.30;99.90;;;;;;5060317;28;20052;-85
2022/11/25 04:12:52;;;;;;;0.10;0.10;;;;;;;;;;5071235;28;20049;-85
2022/11/25 04:15:19;;;;;;;0.10;0.10;;;;;;;;;;5055598;28;20067;-85
2022/11/25 04:17:46;;;;;;;0.10;0.10;;;;;;;;;;5070881;28;20045;-85
2022/11/25 04:20:14;;;;;;;0.10;0.10;;;;;;;;;;5063811;28;20072;-85
2022/11/25 04:22:41;;;;;;;0.10;0.10;;;;;;;;;;5071914;28;20044;-85
2022/11/25 04:25:09;;;;;;;0.10;0.10;;;6.30;99.90;;;;;;5056114;28;20076;-85
2022/11/25 04:27:37;;;;;;;0.10;0.10;;;7.90;99.90;;;;;;5056256;28;20080;-85
2022/11/25 04:30:05;;;;;;;0.10;0.10;;;8.10;99.90;;;;;;5053024;28;20048;-85
2022/11/25 04:32:33;;;;;;;0.10;0.10;;;;;;;;;;5070310;28;20072;-86
2022/11/25 04:35:00;;;;;;;0.10;0.10;;;;;;;;;;5072284;28;20072;-86
2022/11/25 04:37:27;;;;;;;0.00;0.00;;;;;;;;;;5071318;28;20068;-86
2022/11/25 04:39:54;;;;;;;0.10;0.10;;;;;;;;;;5066190;28;20520;-85
2022/11/25 04:42:31;;;;;;;0.10;0.10;;;;;;;;;;5064623;28;20041;-87
2022/11/25 04:44:59;;;;;;;0.10;0.10;;;6.40;99.90;;;;;;5070982;28;20041;-86
2022/11/25 04:47:47;;;;;;;0.10;0.10;;;;;;;;;;5053658;28;20055;-85
2022/11/25 04:50:16;;;;;;;0.10;0.10;;;6.50;99.90;;;;;;5048746;28;20134;-87
2022/11/25 04:52:43;;;;;;;0.10;0.10;;;;;;;;;;5041727;28;20127;-84
2022/11/25 04:55:10;;;;;;;0.10;0.10;;;;;;;;;;5065779;28;20099;-85
2022/11/25 04:57:37;;;;;;;0.10;0.10;;;;;;;;;;5073082;28;20129;-85
2022/11/25 05:00:08;;;;;;;0.10;0.10;;;6.60;99.90;;;;;;5067681;28;20151;-86
2022/11/25 05:02:35;;;;;;;0.10;0.10;;;;;;;;;;5069657;28;20036;-85
2022/11/25 05:05:02;;;;;;;0.10;0.10;;;;;;;;;;5055329;28;20304;-86
2022/11/25 05:07:30;;;;;;;0.10;0.10;;;;;;;;;;5070005;28;20123;-86
2022/11/25 05:09:57;;;;;;;0.10;0.10;;;;;;;;;;5061359;28;20086;-86
2022/11/25 05:12:26;;;;;;;0.10;0.10;;;6.70;99.90;;;;;;5067519;28;20068;-86
2022/11/25 05:14:54;;;;;;;0.10;0.10;;;;;;;;;;5064172;28;20052;-87
2022/11/25 05:17:23;;;;;;;0.10;0.10;;;6.70;99.90;;;;;;5052203;28;20048;-87
2022/11/25 05:19:51;;;;;;;0.10;0.10;;;;;;;;;;5068586;28;20040;-85
2022/11/25 05:22:20;;;;;;;0.10;0.10;;;6.90;99.90;;;;;;5042911;28;20037;-85
2022/11/25 05:24:48;;;;;;;0.10;0.10;;;;;;;;;;5063689;28;20277;-85
2022/11/25 05:27:15;;;;;;;0.10;0.10;;;;;;;;;;5044617;28;20056;-86
2022/11/25 05:29:42;;;;;;;0.10;0.10;;;7.00;99.90;;;;;;5056261;22;20080;-85
2022/11/25 05:32:10;;;;;;;0.10;0.10;;;7.00;99.90;;;;;;5023531;28;20056;-86
2022/11/25 05:34:38;;;;;;;0.10;0.10;;;7.00;99.90;;;;;;5024126;28;20083;-82
2022/11/25 05:37:06;;;;;;;0.10;0.10;;;7.10;99.90;;;;;;5027979;28;20051;-86
2022/11/25 05:39:33;;;;;;;0.10;0.10;;;;;;;;;;5015863;28;20417;-85
2022/11/25 05:42:00;;;;;;;0.10;0.10;;;;;;;;;;5009423;28;20046;-86
2022/11/25 05:44:28;;;;;;;0.10;0.10;;;;;;;;;;5007342;28;20494;-84
2022/11/25 05:46:54;;;;;;;0.10;0.10;;;7.10;99.90;;;;;;5007538;28;20068;-86
2022/11/25 05:49:22;;;;;;;0.10;0.10;;;;;;;;;;5008052;28;20060;-86
2022/11/25 05:51:50;;;;;;;0.10;0.10;;;7.10;99.90;;;;;;5005110;28;20120;-85
2022/11/25 05:54:17;;;;;;;0.10;0.10;;;;;;;;;;5005568;28;20467;-86
2022/11/25 05:56:44;;;;;;;0.10;0.10;;;7.10;99.90;;;;;;5005799;28;20502;-86
2022/11/25 05:59:11;;;;;;;0.10;0.10;;;;;;;;;;5004777;28;20129;-86
2022/11/25 06:01:38;;;;;;;0.10;0.10;;;;;;;;;;5008703;28;20038;-86
2022/11/25 06:04:05;;;;;;;0.10;0.10;;;7.30;99.90;;;;;;5011759;28;20508;-86
2022/11/25 06:06:33;;;;;;;0.10;0.10;;;;;;;;;;5008476;28;20056;-86
2022/11/25 06:09:01;;;;;;;0.10;0.10;;;7.30;99.90;;;;;;5017544;28;20041;-86
2022/11/25 06:11:28;;;;;;;0.10;0.10;;;;;;;;;;5006705;28;20417;-86
2022/11/25 06:13:56;;;;;;;0.10;0.10;;;7.30;99.90;;;;;;5006016;28;20046;-86
2022/11/25 06:16:24;;;;;;;0.10;0.10;;;7.30;99.90;;;;;;5015319;28;20056;-83
2022/11/25 06:18:51;;;;;;;0.10;0.10;;;7.40;99.90;;;;;;5007891;28;20034;-86
2022/11/25 06:21:18;;;;;;;0.10;0.10;;;7.40;99.90;;;;;;5007327;28;20420;-86
2022/11/25 06:23:45;;;;;;;0.10;0.10;;;7.40;99.90;;;;;;4996610;28;20076;-85
2022/11/25 06:26:15;;;;;;;0.10;0.10;;;7.40;99.90;;;;;;5004759;28;21406;-84
2022/11/25 06:28:42;;;;;;;0.10;0.10;;;;;;;;;;5003454;28;20040;-86
2022/11/25 06:31:12;;;;;;;0.10;0.10;;;7.40;99.90;;;;;;5003125;28;20433;-85
2022/11/25 06:33:39;;;;;;;0.10;0.10;;;7.40;99.90;;;;;;5007653;28;20045;-86
2022/11/25 06:36:12;;;;;;;0.10;0.10;;;7.30;99.90;;;;;;5008624;28;20053;-84
2022/11/25 06:38:39;;;;;;;0.10;0.10;;;7.30;99.90;;;;;;5008722;28;20114;-86
2022/11/25 06:41:06;;;;;;;0.10;0.10;;;;;;;;;;5003589;28;20045;-86
2022/11/25 06:43:34;;;;;;;0.10;0.10;;;7.40;99.90;;;;;;4997529;28;20520;-85
2022/11/25 06:46:03;;;;;;;0.10;0.10;;;7.40;99.90;;;;;;5008031;28;20046;-85
2022/11/25 06:48:30;;;;;;;0.10;0.10;;;7.40;99.90;;;;;;5002403;28;20457;-82
2022/11/25 06:50:58;;;;;;;0.10;0.10;;;;;;;;;;5003216;28;20049;-85
2022/11/25 06:53:26;;;;;;;0.10;0.10;;;7.40;99.90;;;;;;5007277;28;20451;-85
2022/11/25 06:56:07;;;;;;;0.10;0.10;;;7.40;99.90;;;;;;5001294;28;20565;-86
2022/11/25 06:58:36;;;;;;;0.10;0.10;;;7.50;99.90;;;;;;5002866;28;20494;-85
2022/11/25 07:01:05;;;;;;;0.10;0.10;;;7.40;99.90;;;;;;5002833;28;20089;-85
2022/11/25 07:03:33;;;;;;;0.10;0.10;;;7.40;99.90;;;;;;5007828;28;20133;-85
2022/11/25 07:06:00;;;;;;;0.10;0.10;;;7.50;99.90;;;;;;5007588;28;20056;-85
2022/11/25 07:08:28;;;;;;;0.10;0.10;;;7.50;99.90;;;;;;5014040;28;20501;-85
2022/11/25 07:11:04;;;;;;;0.10;0.10;;;7.50;99.90;;;;;;5011668;28;20457;-86
2022/11/25 07:13:32;;;;;;;0.10;0.10;;;;;;;;;;5007145;28;20092;-85
2022/11/25 07:16:05;;;;;;;0.10;0.10;;;7.50;99.90;;;;;;5007316;28;20037;-86
2022/11/25 07:18:32;;;;;;;0.10;0.10;;;;;;;;;;5034321;28;20073;-86
2022/11/25 07:21:05;;;;;;;0.10;0.10;;;7.50;99.90;;;;;;5007902;28;20042;-86
2022/11/25 07:23:33;;;;;;;0.10;0.10;;;;;;;;;;5009078;28;20092;-86
2022/11/25 07:26:05;;;;;;;0.10;0.10;;;7.50;99.90;;;;;;5001752;28;20046;-86
2022/11/25 07:28:32;;;;;;;0.10;0.10;;;7.50;99.90;;;;;;5003859;28;20457;-85
2022/11/25 07:31:08;;;;;;;0.10;0.10;;;7.50;99.90;;;;;;5004656;28;20045;-86
2022/11/25 07:33:57;;;;;;;0.10;0.10;;;7.60;99.90;;;;;;5016715;28;20053;-86
2022/11/25 07:36:24;;;;;;;0.10;0.10;;;7.60;99.90;;;;;;5016867;28;20066;-86
2022/11/25 07:38:52;;;;;;;0.00;0.00;;;7.60;99.90;;;;;;5011079;28;20074;-85
2022/11/25 07:41:21;;;;;;;0.10;0.10;;;7.80;99.90;;;;;;5006980;28;20461;-86
2022/11/25 07:43:49;;;;;;;0.10;0.10;;;7.60;99.90;;;;;;5017269;28;20048;-86
2022/11/25 07:46:20;;;;;;;0.10;0.10;;;7.60;99.90;;;;;;5015356;28;20125;-86
2022/11/25 07:48:55;;;;;;;0.10;0.10;;;7.60;99.90;;;;;;5002019;28;20054;-86
2022/11/25 07:51:24;;;;;;;0.10;0.10;;;7.60;99.90;;;;;;5004391;28;20459;-86
2022/11/25 07:53:53;;;;;;;0.10;0.10;;;7.50;99.90;;;;;;5015679;28;20069;-85
2022/11/25 07:56:21;;;;;;;0.10;0.10;;;7.50;99.90;;;;;;5010836;28;20847;-86
2022/11/25 07:58:48;;;;;;;0.10;0.10;;;7.50;99.90;;;;;;5010885;28;20300;-86
2022/11/25 08:01:17;;;;;;;0.10;0.10;;;7.60;99.90;;;;;;5009698;28;20048;-85
2022/11/25 08:03:47;;;;;;;0.10;0.10;;;7.70;99.90;;;;;;5017185;28;20050;-86
2022/11/25 08:06:16;;;;;;;0.10;0.10;;;7.60;99.90;;;;;;5007591;28;20048;-86
2022/11/25 08:08:44;;;;;;;0.10;0.10;;;7.70;99.90;;;;;;5006722;28;20052;-86
2022/11/25 08:11:13;;;;;;;0.10;0.10;;;7.70;99.90;;;;;;5011711;28;20046;-85
2022/11/25 08:13:41;;;;;;;0.10;0.10;;;7.70;99.90;;;;;;5017898;28;20046;-86
2022/11/25 08:16:09;;;;;;;0.10;0.10;;;7.80;99.90;;;;;;5006650;28;20085;-85
2022/11/25 08:18:38;;;;;;;0.10;0.10;;;7.80;99.90;;;;;;5013116;28;20052;-86
2022/11/25 08:21:08;;;;;;;0.10;0.10;;;7.90;99.90;;;;;;5005458;28;20065;-86
2022/11/25 08:23:37;;;;;;;0.10;0.10;;;7.90;99.90;;;;;;5012702;28;20062;-85
2022/11/25 08:26:05;;;;;;;0.10;0.10;;;8.00;99.90;;;;;;5012011;28;20065;-86
2022/11/25 08:28:33;;;;;;;0.10;0.10;;;7.90;99.90;;;;;;5017063;28;20048;-86
2022/11/25 08:31:04;;;;;;;0.10;0.10;;;8.10;99.90;;;;;;5010450;28;20041;-85
2022/11/25 08:33:32;;;;;;;0.08;0.08;;;;;;;;;;5012886;28;20050;-85
2022/11/25 08:36:00;;;;;;;0.10;0.10;;;8.10;99.90;;;;;;5013831;28;20052;-86
2022/11/25 08:38:27;;;;;;;0.10;0.10;;;8.00;99.90;;;;;;5018922;28;20088;-86
2022/11/25 08:40:55;;;;;;;0.10;0.10;;;8.10;99.90;;;;;;5006980;28;20391;-85
2022/11/25 08:43:22;;;;;;;0.10;0.10;;;8.00;99.90;;;;;;5007871;28;20122;-86
2022/11/25 08:45:55;;;;;;;0.10;0.10;;;8.00;99.90;;;;;;5009703;28;20046;-86
2022/11/25 08:48:22;;;;;;;0.10;0.10;;;8.10;99.90;;;;;;5002686;28;20069;-85
2022/11/25 08:50:51;;;;;;;0.10;0.10;;;8.10;99.90;;;;;;5009085;28;20046;-86
2022/11/25 08:53:20;;;;;;;0.10;0.10;;;8.10;99.90;;;;;;5022599;28;20049;-86
2022/11/25 08:55:47;;;;;;;0.10;0.10;;;8.10;99.90;;;;;;5009149;28;20047;-85
2022/11/25 08:58:14;;;;;;;0.08;0.08;;;;;;;;;;5009571;28;20068;-85
2022/11/25 09:00:42;;;;;;;0.10;0.10;;;8.20;99.90;;;;;;5001340;28;20046;-85
2022/11/25 09:03:10;;;;;;;0.10;0.10;;;8.20;99.90;;;;;;5009010;28;20050;-86
2022/11/25 09:05:39;;;;;;;0.00;0.00;;;8.20;99.90;;;;;;5006101;28;20050;-82
2022/11/25 09:08:07;;;;;;;0.10;0.10;;;;;;;;;;4998599;28;20813;-85
2022/11/25 09:10:36;;;;;;;0.10;0.10;;;8.40;99.90;;;;;;5001371;28;20057;-86
2022/11/25 09:13:03;;;;;;;0.10;0.10;;;;;;;;;;5006702;28;20038;-85
2022/11/25 09:15:31;;;;;;;0.10;0.10;;;;;;;;;;5004153;28;20125;-85
2022/11/25 09:17:59;;;;;;;0.10;0.10;;;8.60;99.90;;;;;;4998525;28;20053;-83
2022/11/25 09:20:26;;;;;;;0.00;0.00;;;8.60;99.90;;;;;;5003760;28;20137;-85
2022/11/25 09:22:53;;;;;;;0.00;0.00;;;8.60;99.90;;;;;;5002698;28;20096;-85
2022/11/25 09:25:20;;;;;;;0.10;0.10;;;8.60;99.90;;;;;;5002603;28;20461;-85
2022/11/25 09:27:48;;;;;;;0.10;0.10;;;8.70;99.90;;;;;;5006758;28;20430;-84
2022/11/25 09:30:15;;;;;;;0.05;0.05;;;;;;;;;;5004827;28;20082;-85
2022/11/25 09:32:43;;;;;;;0.10;0.10;;;;;;;;;;5010961;28;20046;-85
2022/11/25 09:35:11;;;;;;;0.10;0.10;;;8.80;99.90;;;;;;5004720;28;20058;-85
2022/11/25 09:37:38;;;;;;;0.10;0.10;;;8.80;99.90;;;;;;5000066;28;20060;-85
2022/11/25 09:40:06;;;;;;;0.10;0.10;;;8.80;99.90;;;;;;5004373;28;20053;-85
2022/11/25 09:48:46;;;;;;;0.10;0.10;;;8.80;99.90;;;;;;5006004;28;20042;-85
2022/11/25 09:51:19;;;;;;;0.10;0.10;;;8.80;99.90;;;;;;5007729;28;20045;-85
2022/11/25 09:53:51;;;;;;;0.00;0.00;;;8.90;99.90;;;;;;5001227;28;20052;-85
2022/11/25 09:56:30;;;;;;;0.10;0.10;;;8.90;99.90;;;;;;5004621;28;20504;-84
2022/11/25 09:59:01;;;;;;;0.10;0.10;;;8.90;99.90;;;;;;5015335;28;20068;-85
2022/11/25 10:01:33;;;;;;;0.00;0.00;;;8.90;99.90;;;;;;5005719;28;20058;-84
2022/11/25 10:04:04;;;;;;;0.10;0.10;;;8.90;99.90;;;;;;5007259;28;20087;-85
2022/11/25 10:06:31;;;;;;;;;;;8.80;99.90;;;;;;5005948;28;20042;-84
2022/11/25 10:09:01;;;;;;;0.10;0.10;;;9.10;99.90;;;;;;5018307;28;19925;-84
2022/11/25 10:11:41;;;;;;;0.10;0.10;;;8.90;99.90;;;;;;5008205;28;20071;-85
2022/11/25 10:14:17;;;;;;;0.10;0.10;;;8.90;99.90;;;;;;5006807;28;20046;-84
2022/11/25 10:16:50;;;;;;;0.10;0.10;;;8.80;99.90;;;;;;5001989;28;20048;-85
2022/11/25 10:19:32;;;;;;;0.10;0.10;;;8.90;99.90;;;;;;5006055;28;20042;-86
2022/11/25 10:22:11;;;;;;;0.10;0.10;;;8.90;99.90;;;;;;5005909;28;20092;-86
2022/11/25 10:24:38;;;;;;;0.10;0.10;;;;;;;;;;5002450;28;20038;-85
2022/11/25 10:27:16;;;;;;;0.10;0.10;;;9.00;99.90;;;;;;5004767;28;20042;-85
2022/11/25 10:29:48;;;;;;;0.10;0.10;;;9.00;99.90;;;;;;5011305;28;20052;-84
2022/11/25 10:32:22;;;;;;;0.10;0.10;;;9.00;99.90;;;;;;5002310;28;20425;-84
2022/11/25 10:34:53;;;;;;;0.10;0.10;;;9.20;99.90;;;;;;5021661;28;20038;-85
2022/11/25 10:37:27;;;;;;;0.10;0.10;;;9.20;99.90;;;;;;5008437;28;20042;-84
2022/11/25 10:39:54;;;;;;;0.10;0.10;;;;;;;;;;5024444;28;20072;-84
2022/11/25 10:42:24;;;;;;;0.03;0.03;;;9.30;99.90;;;;;;5022776;28;20053;-84
2022/11/25 10:44:53;;;;;;;0.10;0.10;;;9.50;99.90;;;;;;5016429;28;20486;-84
2022/11/25 10:47:33;;;;;;;0.10;0.10;;;9.40;99.90;;;;;;5015007;28;20045;-84
2022/11/25 10:50:10;;;;;;;0.10;0.10;;;9.40;99.90;;;;;;5006157;28;20454;-84
2022/11/25 10:52:43;;;;;;;0.00;0.00;;;9.40;99.90;;;;;;5017090;28;20501;-83
2022/11/25 10:55:13;;;;;;;0.10;0.10;;;9.50;99.90;;;;;;5011030;28;20034;-85
2022/11/25 10:57:40;;;;;;;0.10;0.10;;;9.60;99.90;;;;;;5015566;28;20041;-85
2022/11/25 11:00:25;;;;;;;0.00;0.00;;;9.60;99.90;;;;;;5007419;28;20062;-85
2022/11/25 11:02:54;;;;;;;0.10;0.10;;;9.60;99.90;;;;;;5011788;28;20077;-84
2022/11/25 11:05:24;;;;;;;0.00;0.00;;;9.50;99.90;;;;;;5010602;28;20490;-84
2022/11/25 11:08:09;;;;;;;0.08;0.08;;;9.60;99.90;;;;;;5010290;28;20060;-84
2022/11/25 11:10:36;;;;;;;0.05;0.05;;;9.60;99.90;;;;;;5008178;28;20054;-84
2022/11/25 11:13:05;;;;;;;0.00;0.00;;;9.60;99.90;;;;;;5004160;28;20053;-84
2022/11/25 11:15:45;;;;;;;0.10;0.10;;;9.70;99.90;;;;;;4996838;28;20359;-84
2022/11/25 11:18:23;;;;;;;0.08;0.08;;;9.80;99.90;;;;;;5006561;28;20046;-83
2022/11/25 11:20:51;;;;;;;0.00;0.00;;;10.00;99.90;;;;;;5005781;28;20038;-86
2022/11/25 11:23:18;;;;;;;0.10;0.10;;;10.00;99.90;;;;;;5000479;28;21849;-84
2022/11/25 11:25:55;;;;;;;0.00;0.00;;;10.20;99.90;;;;;;5008215;28;20053;-85
2022/11/25 11:30:56;;;;;;;0.10;0.10;;;10.20;99.90;;;;;;5066414;28;20049;-85
2022/11/25 11:33:33;;;;;;;0.10;0.10;;;10.20;99.90;;;;;;5071973;28;20044;-87
2022/11/25 11:36:11;;;;;;;0.00;0.00;;;10.30;99.90;;;;;;5050091;28;20064;-87
2022/11/25 11:38:48;;;;;;;0.00;0.00;;;10.30;99.90;;;;;;5053259;28;20522;-86
2022/11/25 11:41:21;;;;;;;0.10;0.10;;;10.10;99.90;;;;;;5056135;28;20068;-85
2022/11/25 11:44:04;;;;;;;0.00;0.00;;;10.10;99.90;;;;;;5069180;28;20068;-85
2022/11/25 11:46:42;;;;;;;0.00;0.00;;;10.10;99.90;;;;;;5075838;28;20029;-85
2022/11/25 11:49:36;;;;;;;0.03;0.03;;;10.10;99.90;;;;;;5069722;28;20143;-85
2022/11/25 11:52:10;;;;;;;0.00;0.00;;;10.20;99.90;;;;;;5071909;28;20115;-85
2022/11/25 11:54:44;;;;;;;0.10;0.10;;;10.20;99.90;;;;;;5072123;28;20032;-86
2022/11/25 11:57:22;;;;;;;0.10;0.10;;;10.10;99.90;;;;;;5056590;28;20049;-85
2022/11/25 11:59:53;;;;;;;0.00;0.00;;;10.10;99.90;;;;;;5049632;28;20072;-86
2022/11/25 12:02:33;;;;;;;0.00;0.00;;;10.10;99.90;;;;;;5071399;28;20056;-84
2022/11/25 12:05:16;;;;;;;0.00;0.00;;;10.10;99.90;;;;;;5046479;28;20076;-86
2022/11/25 12:07:49;;;;;;;0.00;0.00;;;10.10;99.90;;;;;;5061891;28;20114;-86
2022/11/25 12:10:22;;;;;;;0.00;0.00;;;10.00;99.90;;;;;;5053444;28;20048;-85
2022/11/25 12:12:55;;;;;;;0.00;0.00;;;10.10;99.90;;;;;;5053047;28;20136;-84
2022/11/25 12:15:32;;;;;;;0.05;0.05;;;10.10;99.90;;;;;;5048681;28;20132;-85
2022/11/25 12:18:03;;;;;;;0.00;0.00;;;10.10;99.90;;;;;;5046331;28;20044;-88
2022/11/25 12:20:38;;;;;;;0.00;0.00;;;10.70;99.90;;;;;;5051470;28;20087;-85
2022/11/25 12:23:10;;;;;;;0.00;0.00;;;10.10;99.90;;;;;;5049736;28;20132;-86
2022/11/25 12:25:40;;;;;;;0.10;0.10;;;10.20;99.90;;;;;;5046374;28;20044;-84
2022/11/25 12:28:10;;;;;;;0.10;0.10;;;10.70;99.90;;;;;;5048337;28;20140;-86
2022/11/25 12:30:43;;;;;;;0.00;0.00;;;10.10;99.90;;;;;;5069911;28;20087;-86
2022/11/25 12:33:19;;;;;;;0.10;0.10;;;10.20;99.90;;;;;;5067340;28;20051;-85
2022/11/25 12:35:57;;;;;;;0.00;0.00;;;10.10;99.90;;;;;;5071626;28;20136;-85
2022/11/25 12:38:36;;;;;;;0.00;0.00;;;10.10;99.90;;;;;;5069527;28;20068;-85
2022/11/25 12:41:15;;;;;;;0.00;0.00;;;10.10;99.90;;;;;;5051967;28;20102;-85
2022/11/25 12:43:47;;;;;;;0.00;0.00;;;10.20;99.90;;;;;;5067163;28;20043;-87
2022/11/25 12:46:22;;;;;;;0.00;0.00;;;10.20;99.90;;;;;;5056472;28;20119;-86
2022/11/25 12:48:52;;;;;;;0.10;0.10;;;10.20;99.90;;;;;;5068802;28;20500;-85
2022/11/25 12:51:30;;;;;;;0.00;0.00;;;10.10;99.90;;;;;;5072226;28;20070;-84
2022/11/25 12:54:15;;;;;;;0.00;0.00;;;10.10;99.90;;;;;;5063320;28;20408;-85
2022/11/25 12:56:59;;;;;;;0.03;0.03;;;10.30;99.90;;;;;;5065190;28;20102;-85
2022/11/25 12:59:48;;;;;;;0.00;0.00;;;10.30;99.90;;;;;;5073178;28;20478;-84
2022/11/25 13:02:42;;;;;;;0.00;0.00;;;10.20;99.90;;;;;;5059022;28;20132;-84
2022/11/25 13:05:29;;;;;;;0.00;0.00;;;10.30;99.90;;;;;;5060776;28;20122;-84
2022/11/25 13:08:20;;;;;;;0.00;0.00;;;10.40;99.90;;;;;;5062817;28;20127;-84
2022/11/25 13:11:06;;;;;;;0.00;0.00;;;10.40;99.90;;;;;;5069096;28;20493;-84
2022/11/25 13:13:49;;;;;;;0.00;0.00;;;10.30;99.90;;;;;;5053664;28;20032;-85
2022/11/25 13:16:18;;;;;;;0.00;0.00;;;10.30;99.90;;;;;;5049499;28;20493;-84
2022/11/25 13:18:46;;;;;;;0.10;0.10;;;;;;;;;;5068596;28;20044;-84
2022/11/25 13:21:15;;;;;;;0.10;0.10;;;10.30;99.90;;;;;;5055253;28;20071;-84
2022/11/25 13:23:51;;;;;;;0.10;0.10;;;10.30;99.90;;;;;;5043324;28;20489;-85
2022/11/25 13:26:48;;;;;;;0.10;0.10;;;10.40;99.90;;;;;;5065400;28;20040;-85
2022/11/25 13:29:58;;;;;;;0.10;0.10;;;10.20;99.90;;;;;;4973105;28;20073;-85
2022/11/25 13:32:30;;;;;;;0.00;0.00;;;10.20;99.90;;;;;;5064724;28;20051;-85
2022/11/25 13:35:34;;;;;;;0.00;0.00;;;10.20;99.90;;;;;;5066408;28;20036;-86
2022/11/25 13:38:06;;;;;;;0.10;0.10;;;10.20;99.90;;;;;;5063165;28;20489;-86
2022/11/25 13:40:38;;;;;;;0.10;0.10;;;11.20;99.90;;;;;;5072118;28;20044;-85
2022/11/25 13:43:05;;;;;;;0.00;0.00;;;;;;;;;;5070402;28;20040;-87
2022/11/25 13:45:37;;;;;;;0.10;0.10;;;10.10;99.90;;;;;;5048550;28;20377;-85
2022/11/25 13:48:11;;;;;;;0.00;0.00;;;10.10;99.90;;;;;;5052671;28;20070;-85
2022/11/25 13:50:38;;;;;;;0.00;0.00;;;10.10;99.90;;;;;;5067909;28;20102;-85
2022/11/25 13:53:31;;;;;;;0.10;0.10;;;10.20;99.90;;;;;;5052359;28;20581;-87
2022/11/25 13:56:14;;;;;;;0.10;0.10;;;10.20;99.90;;;;;;5065644;28;20044;-85